Time;durP1;ratioP1;P1;durP2;ratioP2;P2;SDS_P1;SDS_P2;PMS_P1;PMS_P2;Temp;Humidity;BMP_temperature;BMP_pressure;BME280_temperature;BME280_humidity;BME280_pressure;Samples;Min_cycle;Max_cycle;Signal;HPM_P1;HPM_P2
2022/02/25 00:00:39;;;;;;;16.77;2.53;;;;;;;4.78;85.18;101619.09;5069052;28;20447;-77
2022/02/25 00:03:05;;;;;;;14.55;1.88;;;;;;;4.78;85.34;101626.91;5061223;28;20025;-77
2022/02/25 00:05:30;;;;;;;16.30;1.77;;;;;;;4.83;85.48;101614.97;5059214;28;20024;-77
2022/02/25 00:07:56;;;;;;;14.63;1.73;;;;;;;4.77;86.02;101619.88;5063986;28;20025;-77
2022/02/25 00:10:21;;;;;;;14.93;1.58;;;;;;;4.80;85.59;101627.88;5044988;28;20060;-77
2022/02/25 00:12:47;;;;;;;13.18;2.03;;;;;;;4.80;86.37;101614.81;5035815;28;20029;-77
2022/02/25 00:15:13;;;;;;;9.10;1.27;;;;;;;4.76;87.05;101623.31;5053455;28;20061;-78
2022/02/25 00:17:38;;;;;;;10.63;1.50;;;;;;;4.69;87.32;101627.28;5041362;28;20040;-77
2022/02/25 00:20:04;;;;;;;14.00;1.85;;;;;;;4.68;87.54;101633.31;5055049;28;20032;-77
2022/02/25 00:22:29;;;;;;;6.57;1.50;;;;;;;4.68;87.96;101628.09;5051555;28;20062;-77
2022/02/25 00:24:55;;;;;;;14.23;2.03;;;;;;;4.75;87.92;101632.84;5066515;28;20430;-77
2022/02/25 00:27:20;;;;;;;13.77;1.55;;;;;;;4.70;88.23;101634.31;5063840;28;20064;-76
2022/02/25 00:29:45;;;;;;;11.45;2.22;;;;;;;4.70;88.61;101640.41;5043594;28;20379;-78
2022/02/25 00:32:11;;;;;;;9.88;1.83;;;;;;;4.78;88.06;101643.44;5051489;28;20043;-77
2022/02/25 00:34:36;;;;;;;18.83;1.85;;;;;;;4.82;87.87;101641.88;5048041;28;20376;-76
2022/02/25 00:37:02;;;;;;;19.40;2.35;;;;;;;4.85;87.31;101634.22;5060036;28;20039;-77
2022/02/25 00:39:27;;;;;;;15.85;1.70;;;;;;;4.79;88.41;101640.00;5066965;28;20097;-77
2022/02/25 00:41:53;;;;;;;13.63;2.05;;;;;;;4.74;88.39;101641.47;5046730;28;20036;-76
2022/02/25 00:44:18;;;;;;;15.50;2.40;;;;;;;4.78;87.59;101637.34;5041627;28;20457;-76
2022/02/25 00:46:44;;;;;;;14.80;1.95;;;;;;;4.77;88.03;101643.34;5062879;28;20078;-77
2022/02/25 00:49:09;;;;;;;9.07;1.83;;;;;;;4.68;88.66;101652.47;5049170;28;20408;-77
2022/02/25 00:51:34;;;;;;;12.93;2.33;;;;;;;4.68;88.74;101642.06;5062179;28;20033;-77
2022/02/25 00:53:59;;;;;;;12.60;2.05;;;;;;;4.64;88.85;101645.31;5057058;28;20088;-77
2022/02/25 00:56:25;;;;;;;13.50;1.58;;;;;;;4.67;88.13;101648.06;5069030;28;20020;-76
2022/02/25 00:58:53;;;;;;;10.05;2.40;;;;;;;4.76;87.57;101646.75;5040349;28;20024;-77
2022/02/25 01:01:19;;;;;;;17.30;2.92;;;;;;;4.72;87.67;101640.47;5052173;28;20412;-77
2022/02/25 01:03:45;;;;;;;13.65;2.20;;;;;;;4.73;87.86;101640.59;5046483;28;20025;-77
2022/02/25 01:06:11;;;;;;;16.48;2.00;;;;;;;4.67;87.94;101637.66;5058127;28;20099;-77
2022/02/25 01:08:37;;;;;;;17.65;2.97;;;;;;;4.69;88.42;101642.94;5066852;28;20392;-77
2022/02/25 01:11:03;;;;;;;11.13;2.40;;;;;;;4.68;88.58;101652.47;5057594;28;20025;-77
2022/02/25 01:13:28;;;;;;;10.05;1.90;;;;;;;4.73;88.49;101648.41;5057915;28;20144;-76
2022/02/25 01:15:53;;;;;;;11.18;1.90;;;;;;;4.73;88.35;101655.31;5048445;28;20033;-77
2022/02/25 01:18:20;;;;;;;13.32;1.88;;;;;;;4.70;88.71;101652.56;5049260;28;20035;-77
2022/02/25 01:20:45;;;;;;;14.88;2.92;;;;;;;4.69;88.70;101642.94;5068929;28;20062;-77
2022/02/25 01:23:11;;;;;;;11.90;2.15;;;;;;;4.70;88.76;101650.84;5050977;28;20032;-77
2022/02/25 01:25:37;;;;;;;18.90;1.90;;;;;;;4.68;88.79;101642.06;5065211;28;20483;-77
2022/02/25 01:28:03;;;;;;;14.38;1.60;;;;;;;4.67;88.58;101650.69;5053259;28;20048;-77
2022/02/25 01:30:28;;;;;;;10.88;1.80;;;;;;;4.73;87.22;101651.03;5066509;28;20033;-77
2022/02/25 01:32:54;;;;;;;11.88;1.75;;;;;;;4.77;86.93;101648.56;5043084;28;20036;-77
2022/02/25 01:35:19;;;;;;;8.85;2.15;;;;;;;4.77;86.96;101645.97;5064732;28;20021;-77
2022/02/25 01:37:45;;;;;;;8.10;1.73;;;;;;;4.83;87.26;101656.69;5044444;28;20162;-77
2022/02/25 01:40:10;;;;;;;6.15;1.50;;;;;;;4.90;86.92;101658.84;5054887;28;20115;-77
2022/02/25 01:42:45;;;;;;;12.43;2.20;;;;;;;4.89;87.68;101657.03;5051096;28;20029;-77
2022/02/25 01:45:10;;;;;;;14.32;1.83;;;;;;;4.85;87.67;101670.72;5060780;28;20504;-78
2022/02/25 01:47:35;;;;;;;15.45;2.80;;;;;;;4.85;87.63;101658.56;5057978;28;20028;-78
2022/02/25 01:50:01;;;;;;;20.75;2.10;;;;;;;4.91;87.03;101658.03;5032317;28;20061;-78
2022/02/25 01:52:26;;;;;;;10.75;2.45;;;;;;;4.90;86.62;101653.63;5043558;28;20477;-77
2022/02/25 01:54:52;;;;;;;13.57;2.08;;;;;;;4.95;86.07;101657.38;5030924;28;20057;-77
2022/02/25 01:57:17;;;;;;;13.05;1.38;;;;;;;4.89;86.21;101646.59;5032468;28;20473;-78
2022/02/25 01:59:43;;;;;;;9.07;1.77;;;;;;;4.85;85.48;101655.09;5033894;28;20071;-77
2022/02/25 02:02:09;;;;;;;14.00;2.17;;;;;;;4.85;86.30;101653.34;5028955;28;20029;-77
2022/02/25 02:04:35;;;;;;;16.02;3.60;;;;;;;4.81;86.58;101648.78;5019713;28;20052;-77
2022/02/25 02:07:01;;;;;;;17.23;2.28;;;;;;;4.80;87.07;101654.84;5051820;28;20381;-77
2022/02/25 02:09:26;;;;;;;16.48;2.35;;;;;;;4.77;87.70;101657.28;5044423;28;20039;-77
2022/02/25 02:11:53;;;;;;;12.32;2.00;;;;;;;4.82;88.14;101668.84;5050451;28;20029;-77
2022/02/25 02:14:21;;;;;;;11.38;2.30;;;;;;;4.86;87.72;101651.66;5033338;28;20500;-77
2022/02/25 02:16:49;;;;;;;10.77;1.70;;;;;;;4.81;88.73;101658.34;5032208;28;20040;-77
2022/02/25 02:19:15;;;;;;;15.15;3.35;;;;;;;4.77;89.03;101654.66;5024220;28;20029;-77
2022/02/25 02:21:45;;;;;;;16.15;2.88;;;;;;;4.76;89.33;101662.41;5043404;28;20524;-77
2022/02/25 02:24:12;;;;;;;10.77;2.33;;;;;;;4.77;89.12;101662.50;5035534;28;20048;-77
2022/02/25 02:26:38;;;;;;;15.80;2.38;;;;;;;4.73;89.27;101658.84;5037144;28;20029;-77
2022/02/25 02:29:05;;;;;;;11.18;2.03;;;;;;;4.72;89.29;101663.94;5047088;28;20035;-77
2022/02/25 02:31:30;;;;;;;20.88;2.97;;;;;;;4.68;89.41;101652.47;5049719;28;20064;-77
2022/02/25 02:33:56;;;;;;;20.17;2.25;;;;;;;4.72;90.01;101659.66;5037344;28;20021;-77
2022/02/25 02:36:21;;;;;;;17.42;2.13;;;;;;;4.78;89.79;101642.53;5048104;28;20120;-77
2022/02/25 02:38:47;;;;;;;25.88;3.15;;;;;;;4.75;89.91;101640.66;5037150;28;20028;-77
2022/02/25 02:41:12;;;;;;;12.13;2.78;;;;;;;4.73;90.35;101651.03;5043696;28;20464;-77
2022/02/25 02:43:38;;;;;;;18.30;3.22;;;;;;;4.76;90.23;101642.47;5034289;28;20135;-77
2022/02/25 02:46:05;;;;;;;12.82;2.42;;;;;;;4.77;90.54;101632.94;5041609;28;20022;-77
2022/02/25 02:48:31;;;;;;;16.48;2.65;;;;;;;4.82;90.15;101639.28;5032120;28;20048;-77
2022/02/25 02:50:57;;;;;;;19.48;2.97;;;;;;;4.90;89.48;101630.16;5061987;28;20031;-77
2022/02/25 02:53:22;;;;;;;21.58;2.88;;;;;;;4.88;89.62;101630.06;5045709;28;20033;-77
2022/02/25 02:55:47;;;;;;;11.68;3.17;;;;;;;4.88;89.34;101632.69;5041724;28;20115;-77
2022/02/25 02:58:13;;;;;;;19.00;1.98;;;;;;;4.88;89.35;101621.34;5057608;28;20024;-77
2022/02/25 03:00:41;;;;;;;14.13;2.03;;;;;;;4.83;89.78;101617.59;5044621;28;20035;-77
2022/02/25 03:03:08;;;;;;;22.63;3.35;;;;;;;4.82;90.25;101621.91;5054889;28;20121;-77
2022/02/25 03:05:33;;;;;;;15.43;2.47;;;;;;;4.80;90.90;101634.00;5050440;28;20023;-77
2022/02/25 03:07:59;;;;;;;13.98;2.83;;;;;;;4.86;89.91;101625.59;5058083;28;20025;-77
2022/02/25 03:10:24;;;;;;;18.27;2.45;;;;;;;4.83;89.77;101621.09;5071938;28;20032;-77
2022/02/25 03:12:50;;;;;;;15.38;2.13;;;;;;;4.83;89.54;101626.31;5053121;28;20552;-77
2022/02/25 03:15:15;;;;;;;15.18;2.30;;;;;;;4.79;90.26;101623.47;5058820;28;20036;-77
2022/02/25 03:17:42;;;;;;;15.93;3.22;;;;;;;4.78;90.54;101626.91;5067017;28;20411;-77
2022/02/25 03:20:09;;;;;;;17.70;2.05;;;;;;;4.77;90.75;101631.19;5038904;28;20025;-77
2022/02/25 03:22:35;;;;;;;17.58;2.50;;;;;;;4.75;91.10;101624.09;5046962;28;20077;-78
2022/02/25 03:25:01;;;;;;;19.67;2.97;;;;;;;4.71;91.62;101631.78;5051288;28;20024;-78
2022/02/25 03:27:28;;;;;;;18.38;2.88;;;;;;;4.73;91.21;101630.16;5060121;28;20056;-77
2022/02/25 03:29:54;;;;;;;19.20;2.25;;;;;;;4.71;91.50;101637.00;5055352;28;20047;-78
2022/02/25 03:32:20;;;;;;;12.27;2.15;;;;;;;4.77;90.43;101630.31;5053657;28;20029;-78
2022/02/25 03:34:45;;;;;;;16.80;3.10;;;;;;;4.81;90.45;101640.97;5049222;28;20499;-77
2022/02/25 03:37:11;;;;;;;19.98;2.78;;;;;;;4.81;90.89;101637.47;5039328;28;20060;-77
2022/02/25 03:39:36;;;;;;;15.82;2.42;;;;;;;4.88;90.73;101634.38;5042841;28;20029;-77
2022/02/25 03:42:02;;;;;;;18.95;2.67;;;;;;;4.89;91.51;101638.78;5050667;28;20032;-77
2022/02/25 03:44:28;;;;;;;21.45;3.58;;;;;;;4.91;91.34;101631.94;5065938;28;20154;-77
2022/02/25 03:46:53;;;;;;;19.42;2.83;;;;;;;4.93;91.84;101638.13;5051322;28;20075;-77
2022/02/25 03:49:19;;;;;;;18.83;3.00;;;;;;;4.87;93.23;101637.78;5031073;28;20056;-77
2022/02/25 03:51:44;;;;;;;14.27;2.78;;;;;;;4.90;93.57;101630.16;5031281;28;20814;-77
2022/02/25 03:54:10;;;;;;;15.60;3.00;;;;;;;4.99;93.93;101633.25;5035551;28;20521;-77
2022/02/25 03:56:36;;;;;;;19.73;2.92;;;;;;;5.07;93.96;101639.75;5047333;28;20100;-77
2022/02/25 03:59:02;;;;;;;18.17;2.95;;;;;;;5.04;94.33;101646.50;5031979;28;20054;-77
2022/02/25 04:01:27;;;;;;;19.92;2.95;;;;;;;5.05;94.15;101641.38;5032752;28;20032;-77
2022/02/25 04:03:52;;;;;;;17.25;2.95;;;;;;;5.10;93.60;101641.63;5034102;28;20025;-77
2022/02/25 04:06:19;;;;;;;15.90;2.20;;;;;;;5.22;93.14;101631.81;5038716;28;20112;-77
2022/02/25 04:08:44;;;;;;;18.13;2.88;;;;;;;5.21;93.56;101640.44;5028844;28;20510;-77
2022/02/25 04:11:10;;;;;;;22.13;4.07;;;;;;;5.26;93.29;101647.63;5033996;28;20030;-77
2022/02/25 04:13:36;;;;;;;22.92;3.80;;;;;;;5.28;93.46;101640.78;5033377;28;20052;-77
2022/02/25 04:16:01;;;;;;;14.13;2.20;;;;;;;5.31;93.27;101641.81;5039028;28;20026;-76
2022/02/25 04:18:27;;;;;;;17.17;2.70;;;;;;;5.30;93.55;101645.22;5041965;28;20025;-78
2022/02/25 04:20:53;;;;;;;17.05;2.20;;;;;;;5.25;94.03;101646.72;5018293;28;20041;-78
2022/02/25 04:23:18;;;;;;;22.10;2.97;;;;;;;5.29;93.26;101643.47;5046490;28;20025;-78
2022/02/25 04:25:43;;;;;;;21.92;2.67;;;;;;;5.31;92.68;101640.94;5030776;28;20022;-78
2022/02/25 04:28:09;;;;;;;14.88;2.03;;;;;;;5.36;92.86;101624.69;5031404;28;20036;-78
2022/02/25 04:30:34;;;;;;;15.07;3.08;;;;;;;5.44;91.69;101642.44;5028308;28;20025;-78
2022/02/25 04:33:00;;;;;;;11.13;1.77;;;;;;;5.45;91.90;101629.44;5022008;28;20500;-78
2022/02/25 04:35:25;;;;;;;19.85;2.70;;;;;;;5.38;94.06;101616.91;5020640;28;20496;-79
2022/02/25 04:37:51;;;;;;;25.40;2.97;;;;;;;5.25;95.11;101641.50;5040203;28;20017;-76
2022/02/25 04:40:17;;;;;;;19.25;2.75;;;;;;;5.19;95.25;101625.53;5037235;28;20550;-76
2022/02/25 04:42:42;;;;;;;22.45;2.78;;;;;;;5.19;95.74;101635.97;5040545;28;20036;-76
2022/02/25 04:45:08;;;;;;;18.52;3.30;;;;;;;5.17;96.37;101635.00;5027305;28;20025;-76
2022/02/25 04:47:34;;;;;;;17.27;3.20;;;;;;;5.17;97.05;101629.78;5035777;28;20029;-76
2022/02/25 04:49:59;;;;;;;26.85;4.15;;;;;;;5.15;98.16;101641.84;5056896;28;20044;-76
2022/02/25 04:52:25;;;;;;;17.55;3.00;;;;;;;4.71;100.00;101652.63;5073899;28;20159;-77
2022/02/25 04:54:50;;;;;;;24.02;2.47;;;;;;;4.34;100.00;101649.75;5048865;28;20025;-78
2022/02/25 04:57:16;;;;;;;22.95;3.10;;;;;;;4.13;100.00;101655.56;5070697;28;20108;-77
2022/02/25 04:59:42;;;;;;;21.55;2.58;;;;;;;4.06;100.00;101679.47;5061117;28;20033;-78
2022/02/25 05:02:08;;;;;;;21.50;3.08;;;;;;;4.14;100.00;101656.47;5072795;28;20094;-78
2022/02/25 05:04:34;;;;;;;28.95;3.03;;;;;;;4.20;100.00;101668.09;5044765;28;20043;-78
2022/02/25 05:06:59;;;;;;;18.92;3.15;;;;;;;4.20;100.00;101668.09;5051473;28;20021;-78
2022/02/25 05:09:25;;;;;;;19.13;2.78;;;;;;;4.20;100.00;101656.81;5061180;28;20373;-78
2022/02/25 05:11:50;;;;;;;16.85;3.28;;;;;;;4.18;100.00;101664.53;5045027;28;20031;-78
2022/02/25 05:22:28;;;;;;;13.65;2.70;;;;;;;4.47;100.00;101666.97;5059303;28;20438;-78
2022/02/25 05:24:53;;;;;;;18.75;3.97;;;;;;;4.46;100.00;101659.94;5055048;28;20025;-78
2022/02/25 05:27:20;;;;;;;21.48;2.90;;;;;;;4.53;100.00;101667.28;5040260;28;20090;-78
2022/02/25 05:29:46;;;;;;;15.93;2.85;;;;;;;4.60;100.00;101682.44;5050956;28;20480;-78
2022/02/25 05:32:12;;;;;;;22.05;2.60;;;;;;;4.71;100.00;101686.53;5061675;28;20451;-78
2022/02/25 05:34:37;;;;;;;15.20;2.53;;;;;;;4.60;100.00;101689.34;5057750;28;20024;-77
2022/02/25 05:37:02;;;;;;;14.25;2.30;;;;;;;4.42;100.00;101695.34;5055430;28;20040;-76
2022/02/25 05:39:28;;;;;;;15.98;2.63;;;;;;;4.36;100.00;101698.53;5067687;28;20028;-77
2022/02/25 05:41:53;;;;;;;11.70;2.35;;;;;;;4.39;100.00;101689.97;5055324;28;20028;-77
2022/02/25 05:44:18;;;;;;;19.67;2.38;;;;;;;4.49;100.00;101691.38;5067733;28;20025;-77
2022/02/25 05:46:45;;;;;;;14.35;2.75;;;;;;;4.52;100.00;101691.56;5054477;28;20027;-77
2022/02/25 05:49:10;;;;;;;14.13;1.85;;;;;;;4.60;100.00;101684.13;5062007;28;20037;-76
2022/02/25 05:51:36;;;;;;;21.73;2.17;;;;;;;4.59;100.00;101688.47;5072037;28;20032;-77
2022/02/25 05:54:01;;;;;;;14.50;3.28;;;;;;;4.70;100.00;101695.16;5065534;28;20285;-77
2022/02/25 05:56:26;;;;;;;14.43;1.88;;;;;;;4.77;100.00;101704.22;5040982;28;20541;-77
2022/02/25 05:58:52;;;;;;;15.98;2.30;;;;;;;4.80;100.00;101708.69;5041345;28;20028;-77
2022/02/25 06:01:18;;;;;;;19.20;2.38;;;;;;;4.78;100.00;101716.44;5052730;28;20036;-77
2022/02/25 06:03:44;;;;;;;12.43;2.70;;;;;;;4.86;100.00;101719.47;5057313;28;20392;-76
2022/02/25 06:06:09;;;;;;;10.23;1.67;;;;;;;4.89;100.00;101730.06;5051607;28;20435;-76
2022/02/25 06:08:34;;;;;;;12.30;2.33;;;;;;;4.92;100.00;101731.94;5044941;28;20021;-77
2022/02/25 06:11:00;;;;;;;14.27;2.42;;;;;;;4.94;100.00;101738.13;5041497;28;20439;-77
2022/02/25 06:13:26;;;;;;;23.60;2.58;;;;;;;4.93;100.00;101765.91;5053782;28;20025;-77
2022/02/25 06:15:51;;;;;;;14.07;2.20;;;;;;;5.00;100.00;101755.00;5050346;28;20388;-77
2022/02/25 06:18:19;;;;;;;15.43;2.95;;;;;;;5.02;100.00;101765.53;5068118;28;20021;-77
2022/02/25 06:20:44;;;;;;;16.73;2.70;;;;;;;4.99;100.00;101779.31;5062561;28;20115;-78
2022/02/25 06:23:11;;;;;;;10.20;1.50;;;;;;;5.07;99.87;101777.09;5061068;28;20553;-78
2022/02/25 06:25:36;;;;;;;10.85;2.58;;;;;;;5.09;100.00;101785.00;5059885;28;20021;-77
2022/02/25 06:28:03;;;;;;;16.00;1.95;;;;;;;5.15;99.18;101780.13;5065724;28;20035;-76
2022/02/25 06:30:29;;;;;;;11.60;1.88;;;;;;;5.17;99.61;101783.72;5050925;28;20536;-76
2022/02/25 06:32:54;;;;;;;12.45;2.50;;;;;;;5.23;97.66;101786.66;5063561;28;20104;-77
2022/02/25 06:35:23;;;;;;;14.88;2.40;;;;;;;5.21;98.09;101796.13;5040801;28;20036;-74
2022/02/25 06:37:48;;;;;;;17.38;2.15;;;;;;;5.21;98.64;101794.41;5048749;28;20032;-74
2022/02/25 06:40:14;;;;;;;8.73;2.33;;;;;;;5.16;99.74;101797.56;5060780;28;20029;-75
2022/02/25 06:42:39;;;;;;;10.07;2.72;;;;;;;5.21;99.70;101801.34;5063760;28;20039;-75
2022/02/25 06:45:05;;;;;;;14.80;2.25;;;;;;;5.21;99.99;101797.00;5055686;28;20020;-76
2022/02/25 06:47:30;;;;;;;14.07;2.85;;;;;;;5.23;99.93;101817.97;5054350;28;20031;-76
2022/02/25 06:49:55;;;;;;;13.73;3.08;;;;;;;5.25;100.00;101818.97;5054427;28;20048;-75
2022/02/25 06:52:21;;;;;;;19.48;2.20;;;;;;;5.24;100.00;101820.66;5072032;28;20017;-77
2022/02/25 06:54:46;;;;;;;11.88;2.20;;;;;;;5.32;99.41;101839.34;5065526;28;20111;-78
2022/02/25 06:57:12;;;;;;;24.95;3.03;;;;;;;5.35;98.81;101838.63;5066541;28;20455;-75
2022/02/25 06:59:38;;;;;;;22.73;3.45;;;;;;;5.35;99.56;101846.44;5068367;28;20205;-75
2022/02/25 07:02:04;;;;;;;14.63;2.33;;;;;;;5.34;100.00;101845.53;5059014;28;20028;-74
2022/02/25 07:04:29;;;;;;;23.92;2.80;;;;;;;5.34;100.00;101842.91;5065433;28;20013;-75
2022/02/25 07:06:55;;;;;;;14.95;2.78;;;;;;;5.38;100.00;101863.13;5044028;28;20043;-75
2022/02/25 07:09:21;;;;;;;15.43;2.97;;;;;;;5.45;99.99;101847.81;5071707;28;20103;-76
2022/02/25 07:11:46;;;;;;;18.35;2.78;;;;;;;5.48;100.00;101853.19;5059928;28;20051;-79
2022/02/25 07:14:12;;;;;;;11.10;2.88;;;;;;;5.46;100.00;101849.63;5059934;28;20119;-75
2022/02/25 07:16:37;;;;;;;22.25;3.00;;;;;;;5.50;99.78;101867.25;5076852;28;20040;-76
2022/02/25 07:19:03;;;;;;;15.55;3.50;;;;;;;5.48;100.00;101874.09;5058069;28;20024;-76
2022/02/25 07:21:28;;;;;;;17.80;2.40;;;;;;;5.50;99.78;101873.34;5068419;28;20059;-76
2022/02/25 07:23:54;;;;;;;11.98;2.10;;;;;;;5.52;99.16;101889.09;5065445;28;20035;-76
2022/02/25 07:26:19;;;;;;;14.13;2.60;;;;;;;5.55;99.38;101882.34;5067535;28;20044;-76
2022/02/25 07:28:45;;;;;;;18.55;2.20;;;;;;;5.64;98.80;101887.13;5067798;28;20043;-76
2022/02/25 07:31:10;;;;;;;15.82;2.28;;;;;;;5.64;99.26;101905.41;5068855;28;20035;-76
2022/02/25 07:33:35;;;;;;;13.13;3.10;;;;;;;5.69;99.18;101901.34;5072747;28;20583;-76
2022/02/25 07:36:01;;;;;;;14.68;2.45;;;;;;;5.71;98.53;101893.59;5061120;28;20036;-76
2022/02/25 07:38:26;;;;;;;17.63;3.05;;;;;;;5.76;99.02;101907.78;5063673;28;20024;-77
2022/02/25 07:40:52;;;;;;;21.92;3.13;;;;;;;5.79;98.39;101907.06;5048718;28;20031;-76
2022/02/25 07:43:20;;;;;;;22.30;3.30;;;;;;;5.79;97.97;101907.94;5068456;28;20035;-76
2022/02/25 07:45:50;;;;;;;13.85;2.40;;;;;;;5.83;96.59;101909.03;5064113;28;20032;-76
2022/02/25 07:48:16;;;;;;;15.70;3.15;;;;;;;5.84;97.82;101913.44;5063843;28;20075;-76
2022/02/25 07:50:42;;;;;;;18.30;2.95;;;;;;;5.83;97.61;101915.16;5063070;28;20043;-76
2022/02/25 07:53:07;;;;;;;21.75;2.88;;;;;;;5.84;97.43;101921.28;5058209;28;20037;-77
2022/02/25 07:55:33;;;;;;;19.83;3.47;;;;;;;5.91;96.42;101919.09;5047485;28;20380;-75
2022/02/25 07:57:58;;;;;;;14.27;2.67;;;;;;;5.96;96.52;101924.53;5059268;28;20028;-77
2022/02/25 08:00:25;;;;;;;17.90;3.28;;;;;;;5.95;96.63;101934.91;5067877;28;20025;-73
2022/02/25 08:02:50;;;;;;;17.50;2.83;;;;;;;5.95;96.85;101938.41;5055109;28;20048;-74
2022/02/25 08:05:16;;;;;;;19.35;2.80;;;;;;;5.95;95.82;101938.41;5059212;28;20027;-76
2022/02/25 08:07:43;;;;;;;15.50;2.80;;;;;;;5.94;96.42;101954.94;5069108;28;20523;-75
2022/02/25 08:10:09;;;;;;;16.63;3.10;;;;;;;5.92;96.74;101956.53;5072649;28;20024;-75
2022/02/25 08:12:34;;;;;;;18.58;2.83;;;;;;;5.95;95.80;101955.81;5057016;28;20094;-75
2022/02/25 08:14:59;;;;;;;25.42;4.22;;;;;;;5.96;95.03;101955.88;5069998;28;20159;-74
2022/02/25 08:17:25;;;;;;;20.33;3.30;;;;;;;5.96;95.14;101963.72;5067045;28;20025;-76
2022/02/25 08:19:50;;;;;;;11.13;2.70;;;;;;;5.98;95.50;101969.06;5070068;28;20021;-74
2022/02/25 08:22:18;;;;;;;18.83;2.80;;;;;;;5.98;95.52;101977.81;5068957;28;20040;-75
2022/02/25 08:24:44;;;;;;;13.55;2.05;;;;;;;5.99;95.87;101983.94;5051519;28;20024;-75
2022/02/25 08:27:10;;;;;;;19.88;2.75;;;;;;;6.00;95.72;101996.19;5063496;28;20036;-74
2022/02/25 08:29:35;;;;;;;20.58;2.70;;;;;;;5.99;95.71;101995.25;5060911;28;20017;-76
2022/02/25 08:32:00;;;;;;;16.60;2.05;;;;;;;6.02;95.81;101990.22;5055501;28;20020;-75
2022/02/25 08:34:26;;;;;;;14.07;1.83;;;;;;;6.02;95.95;102010.22;5070261;28;20344;-75
2022/02/25 08:36:55;;;;;;;26.40;4.78;;;;;;;5.99;95.77;101999.59;5042396;28;20081;-76
2022/02/25 08:39:21;;;;;;;11.52;3.03;;;;;;;5.97;95.53;102012.56;5061150;28;20420;-77
2022/02/25 08:41:46;;;;;;;19.70;2.88;;;;;;;6.01;95.06;102025.00;5045861;28;20017;-76
2022/02/25 08:44:12;;;;;;;16.42;2.75;;;;;;;6.02;95.14;102025.88;5060307;28;20511;-76
2022/02/25 08:46:37;;;;;;;15.30;2.50;;;;;;;5.99;95.51;102031.84;5069751;28;20043;-76
2022/02/25 08:49:03;;;;;;;11.20;2.15;;;;;;;5.99;95.37;102039.69;5049164;28;20822;-76
2022/02/25 08:51:29;;;;;;;17.52;2.47;;;;;;;6.00;94.92;102033.66;5056839;28;20530;-74
2022/02/25 08:53:54;;;;;;;19.05;3.42;;;;;;;6.03;95.46;102045.97;5071722;28;20020;-75
2022/02/25 08:56:20;;;;;;;19.40;2.78;;;;;;;6.08;95.41;102042.81;5043345;28;20096;-76
2022/02/25 08:58:45;;;;;;;16.73;3.00;;;;;;;6.17;95.67;102057.19;5055875;28;20541;-74
2022/02/25 09:01:11;;;;;;;18.42;2.78;;;;;;;6.19;95.81;102051.22;5063579;28;20029;-75
2022/02/25 09:03:36;;;;;;;19.85;2.95;;;;;;;6.18;95.33;102066.81;5042252;28;20554;-76
2022/02/25 09:06:02;;;;;;;11.93;2.28;;;;;;;6.18;95.23;102061.59;5065663;28;20524;-77
2022/02/25 09:08:27;;;;;;;14.60;2.72;;;;;;;6.19;96.23;102063.41;5059559;28;20089;-75
2022/02/25 09:10:54;;;;;;;16.88;3.33;;;;;;;6.17;95.96;102062.41;5048803;28;20039;-75
2022/02/25 09:13:19;;;;;;;13.13;2.88;;;;;;;6.24;96.09;102064.56;5063676;28;20028;-74
2022/02/25 09:15:45;;;;;;;16.20;2.97;;;;;;;6.27;95.90;102080.41;5051307;28;20021;-74
2022/02/25 09:18:10;;;;;;;12.73;2.88;;;;;;;6.26;96.06;102073.38;5040016;28;20086;-75
2022/02/25 09:20:37;;;;;;;14.90;3.40;;;;;;;6.27;96.28;102069.94;5068346;28;20368;-74
2022/02/25 09:23:03;;;;;;;23.33;3.22;;;;;;;6.24;96.88;102080.25;5072975;28;20040;-74
2022/02/25 09:25:29;;;;;;;16.13;2.75;;;;;;;6.26;96.99;102086.44;5066263;28;20027;-76
2022/02/25 09:27:56;;;;;;;20.35;3.05;;;;;;;6.28;96.87;102092.66;5054396;28;20032;-76
2022/02/25 09:30:22;;;;;;;17.83;2.95;;;;;;;6.26;96.66;102109.06;5071629;28;20029;-76
2022/02/25 09:32:47;;;;;;;24.45;2.80;;;;;;;6.30;96.52;102095.34;5054676;28;20020;-76
2022/02/25 09:35:13;;;;;;;12.95;2.40;;;;;;;6.27;97.30;102100.38;5061723;28;20070;-76
2022/02/25 09:37:39;;;;;;;21.92;3.60;;;;;;;6.27;96.97;102111.75;5054740;28;20028;-76
2022/02/25 09:40:10;;;;;;;14.70;2.40;;;;;;;6.25;97.20;102118.59;5058265;28;20028;-75
2022/02/25 09:42:38;;;;;;;24.05;2.58;;;;;;;6.30;97.59;102122.38;5052658;28;20024;-76
2022/02/25 09:45:05;;;;;;;23.90;2.58;;;;;;;6.31;97.05;102126.78;5062113;28;20040;-75
2022/02/25 09:47:35;;;;;;;14.00;2.63;;;;;;;6.36;95.80;102127.94;5056472;28;20021;-75
2022/02/25 09:50:00;;;;;;;11.30;2.10;;;;;;;6.46;95.29;102131.03;5034934;28;20056;-75
2022/02/25 09:52:26;;;;;;;14.90;2.72;;;;;;;6.44;95.63;102130.06;5050407;28;20025;-76
2022/02/25 09:54:51;;;;;;;22.23;3.75;;;;;;;6.48;96.81;102139.88;5041910;28;20032;-75
2022/02/25 09:57:16;;;;;;;16.05;2.35;;;;;;;6.56;96.67;102146.44;5027778;28;20029;-75
2022/02/25 09:59:42;;;;;;;17.85;2.20;;;;;;;6.66;96.13;102142.56;5038915;28;20041;-76
2022/02/25 10:02:08;;;;;;;21.23;3.00;;;;;;;6.86;96.52;102149.78;5061067;28;20029;-75
2022/02/25 10:04:34;;;;;;;19.85;3.33;;;;;;;7.16;94.54;102149.59;5044131;28;20033;-75
2022/02/25 10:07:00;;;;;;;20.13;2.75;;;;;;;7.07;94.48;102155.25;5046892;28;20032;-75
2022/02/25 10:09:32;;;;;;;21.88;2.92;;;;;;;6.97;94.76;102163.41;5037166;28;20075;-76
2022/02/25 10:12:12;;;;;;;15.90;2.80;;;;;;;7.01;94.98;102149.69;5053765;28;20025;-76
2022/02/25 10:14:48;;;;;;;16.85;3.30;;;;;;;7.42;92.45;102161.38;5028490;28;20104;-76
2022/02/25 10:17:15;;;;;;;12.68;2.15;;;;;;;7.74;90.41;102175.19;5048033;28;20364;-76
2022/02/25 10:19:48;;;;;;;12.38;2.38;;;;;;;7.78;90.25;102159.63;5055914;28;20024;-76
2022/02/25 10:22:34;;;;;;;17.60;3.42;;;;;;;7.84;89.55;102165.16;5046083;28;20055;-75
2022/02/25 10:25:11;;;;;;;18.00;4.22;;;;;;;8.03;89.12;102172.19;5024920;28;20021;-75
2022/02/25 10:27:38;;;;;;;16.30;2.95;;;;;;;7.88;89.91;102177.59;5047504;28;20079;-74
2022/02/25 10:30:04;;;;;;;27.10;3.42;;;;;;;7.73;90.00;102189.13;5044103;28;20693;-75
2022/02/25 10:32:42;;;;;;;20.27;3.50;;;;;;;7.73;90.28;102189.13;5048542;28;20028;-76
2022/02/25 10:35:27;;;;;;;19.15;3.20;;;;;;;7.97;90.12;102198.13;5032109;28;20389;-75
2022/02/25 10:38:08;;;;;;;17.92;3.25;;;;;;;7.98;88.04;102203.44;5035187;28;20033;-74
2022/02/25 10:40:45;;;;;;;18.10;2.70;;;;;;;7.78;89.39;102215.56;5024854;28;20119;-74
2022/02/25 10:43:25;;;;;;;14.45;3.65;;;;;;;7.67;91.97;102220.25;5042964;28;20039;-74
2022/02/25 10:45:54;;;;;;;16.73;2.83;;;;;;;7.52;92.07;102227.34;5044438;28;20377;-75
2022/02/25 10:48:22;;;;;;;21.90;3.17;;;;;;;7.63;91.51;102234.00;5048213;28;20052;-75
2022/02/25 10:50:51;;;;;;;15.40;2.60;;;;;;;7.49;91.51;102237.63;5062058;28;20465;-75
2022/02/25 10:53:24;;;;;;;15.73;2.60;;;;;;;8.04;90.16;102232.56;5049714;28;20025;-75
2022/02/25 10:55:50;;;;;;;14.98;2.80;;;;;;;8.55;87.29;102234.16;5060802;28;20082;-75
2022/02/25 10:58:17;;;;;;;18.38;3.40;;;;;;;8.53;86.02;102249.84;5057830;28;20028;-76
2022/02/25 11:00:43;;;;;;;18.67;3.10;;;;;;;8.44;87.20;102247.63;5038998;28;20029;-76
2022/02/25 11:03:08;;;;;;;14.15;3.03;;;;;;;8.21;87.12;102253.50;5068520;28;20051;-76
2022/02/25 11:05:35;;;;;;;20.38;2.78;;;;;;;8.28;87.08;102252.97;5070506;28;20035;-76
2022/02/25 11:08:03;;;;;;;21.05;3.53;;;;;;;8.90;86.41;102261.16;5063327;28;20200;-76
2022/02/25 11:10:31;;;;;;;12.82;2.75;;;;;;;9.34;84.22;102257.00;5064210;28;20552;-77
2022/02/25 11:13:01;;;;;;;23.30;3.90;;;;;;;9.57;82.46;102259.75;5073111;28;20063;-74
2022/02/25 11:15:32;;;;;;;14.48;3.22;;;;;;;9.50;82.33;102255.97;5069709;28;20029;-74
2022/02/25 11:17:58;;;;;;;19.42;3.00;;;;;;;9.10;81.69;102276.09;5065323;28;20032;-75
2022/02/25 11:20:30;;;;;;;21.50;3.72;;;;;;;8.91;83.65;102265.56;5064387;28;20056;-75
2022/02/25 11:23:02;;;;;;;21.33;3.80;;;;;;;8.85;83.67;102279.31;5046837;28;20029;-75
2022/02/25 11:25:29;;;;;;;23.15;3.42;;;;;;;8.80;83.94;102280.81;5059516;28;20024;-75
2022/02/25 11:27:55;;;;;;;17.20;2.83;;;;;;;8.72;83.90;102287.41;5058661;28;20460;-75